Time;durP1;ratioP1;P1;durP2;ratioP2;P2;SDS_P1;SDS_P2;PMS_P1;PMS_P2;Temp;Humidity;BMP_temperature;BMP_pressure;BME280_temperature;BME280_humidity;BME280_pressure;Samples;Min_cycle;Max_cycle;Signal;HPM_P1;HPM_P2
2023/06/29 00:01:59;;;;;;;32.25;23.27;;;;;;;20.53;79.42;101482.53;5061445;28;20044;-71
2023/06/29 00:04:26;;;;;;;34.50;23.75;;;;;;;20.51;79.24;101487.09;5067382;28;20087;-71
2023/06/29 00:06:54;;;;;;;32.72;23.52;;;;;;;20.50;79.63;101481.84;5063341;28;20041;-72
2023/06/29 00:09:22;;;;;;;32.90;23.67;;;;;;;20.48;79.52;101487.28;5063774;28;20126;-72
2023/06/29 00:11:49;;;;;;;34.80;24.42;;;;;;;20.45;79.80;101474.94;5065518;28;20100;-72
2023/06/29 00:14:16;;;;;;;32.03;24.30;;;;;;;20.46;79.81;101482.03;5066051;28;20607;-72
2023/06/29 00:16:43;;;;;;;34.22;23.13;;;;;;;20.46;79.72;101481.16;5064907;28;20040;-71
2023/06/29 00:19:14;;;;;;;35.72;23.73;;;;;;;20.47;79.86;101481.09;5063766;28;20045;-71
2023/06/29 00:21:42;;;;;;;32.25;23.60;;;;;;;20.45;79.60;101479.47;5061601;28;20087;-70
2023/06/29 00:24:12;;;;;;;31.05;22.98;;;;;;;20.42;79.94;101475.13;5065896;28;20045;-70
2023/06/29 00:26:39;;;;;;;32.53;22.33;;;;;;;20.41;80.26;101467.22;5064057;28;20045;-71
2023/06/29 00:29:06;;;;;;;33.83;23.90;;;;;;;20.39;79.93;101467.31;5063788;28;20317;-71
2023/06/29 00:31:35;;;;;;;35.40;23.90;;;;;;;20.39;80.28;101459.28;5057407;28;20047;-71
2023/06/29 00:34:02;;;;;;;32.88;23.52;;;;;;;20.40;80.42;101457.44;5064773;28;20041;-71
2023/06/29 00:36:31;;;;;;;33.95;23.15;;;;;;;20.38;80.30;101460.22;5061050;28;20049;-72
2023/06/29 00:38:59;;;;;;;34.97;23.67;;;;;;;20.37;80.35;101455.84;5064176;28;20569;-72
2023/06/29 00:41:26;;;;;;;31.67;22.98;;;;;;;20.37;80.62;101461.19;5061491;28;20037;-72
2023/06/29 00:43:53;;;;;;;34.90;23.73;;;;;;;20.36;80.59;101459.47;5063937;28;20049;-72
2023/06/29 00:46:20;;;;;;;34.58;24.30;;;;;;;20.36;80.62;101461.25;5058055;28;20045;-72
2023/06/29 00:48:47;;;;;;;34.00;22.77;;;;;;;20.35;80.34;101459.56;5063090;28;20061;-72
2023/06/29 00:51:16;;;;;;;30.88;22.40;;;;;;;20.37;80.54;101465.66;5061323;28;20041;-72
2023/06/29 00:53:44;;;;;;;31.42;23.20;;;;;;;20.36;80.62;101470.16;5064165;28;20510;-72
2023/06/29 00:56:12;;;;;;;33.10;23.08;;;;;;;20.35;80.67;101457.75;5064056;28;20206;-71
2023/06/29 00:58:40;;;;;;;32.45;23.08;;;;;;;20.35;80.80;101459.56;5059577;28;20091;-72
2023/06/29 01:01:07;;;;;;;31.40;22.98;;;;;;;20.35;81.00;101456.91;5066966;28;20041;-72
2023/06/29 01:03:36;;;;;;;33.78;23.05;;;;;;;20.34;80.78;101458.69;5067445;28;20055;-72
2023/06/29 01:06:13;;;;;;;30.88;22.85;;;;;;;20.35;81.03;101455.06;5065089;28;20091;-72
2023/06/29 01:08:46;;;;;;;29.83;23.13;;;;;;;20.34;80.95;101447.97;5066728;28;20048;-72
2023/06/29 01:11:15;;;;;;;34.00;23.30;;;;;;;20.34;81.02;101453.34;5067358;28;20094;-72
2023/06/29 01:13:45;;;;;;;31.50;23.00;;;;;;;20.33;81.11;101448.94;5068611;28;20045;-71
2023/06/29 01:16:15;;;;;;;35.00;23.30;;;;;;;20.35;81.34;101443.50;5067377;28;20152;-71
2023/06/29 01:18:47;;;;;;;31.38;23.35;;;;;;;20.34;81.33;101450.66;5065236;28;20045;-70
2023/06/29 01:21:18;;;;;;;35.25;23.65;;;;;;;20.32;81.37;101441.84;5066767;28;20076;-71
2023/06/29 01:23:46;;;;;;;30.65;23.17;;;;;;;20.32;81.42;101439.19;5066904;28;20037;-71
2023/06/29 01:26:15;;;;;;;31.95;23.85;;;;;;;20.31;81.63;101442.81;5065068;28;20767;-70
2023/06/29 01:28:42;;;;;;;32.53;22.75;;;;;;;20.28;81.50;101438.50;5066340;28;20055;-70
2023/06/29 01:31:11;;;;;;;31.20;23.27;;;;;;;20.25;81.92;101435.16;5065892;28;20572;-71
2023/06/29 01:33:38;;;;;;;31.17;22.00;;;;;;;20.21;82.11;101441.66;5066489;28;20051;-71
2023/06/29 01:36:24;;;;;;;31.30;22.75;;;;;;;20.19;82.46;101438.25;5066408;28;20623;-70
2023/06/29 01:39:05;;;;;;;31.23;22.98;;;;;;;20.17;82.50;101438.31;5064986;28;20045;-70
2023/06/29 01:41:42;;;;;;;32.38;22.75;;;;;;;20.14;82.52;101438.53;5083813;28;20123;-70
2023/06/29 01:44:15;;;;;;;37.17;23.63;;;;;;;20.11;82.68;101438.69;5077931;28;20040;-70
2023/06/29 01:46:45;;;;;;;30.73;22.55;;;;;;;20.10;82.78;101428.94;5070021;28;20520;-71
2023/06/29 01:49:13;;;;;;;32.78;22.63;;;;;;;20.10;82.97;101436.97;5066079;28;20126;-71
2023/06/29 01:51:40;;;;;;;34.13;23.13;;;;;;;20.09;82.89;101433.44;5064653;28;20045;-70
2023/06/29 01:54:07;;;;;;;31.05;22.98;;;;;;;20.07;83.03;101421.97;5066820;28;20672;-71
2023/06/29 01:56:34;;;;;;;31.65;23.13;;;;;;;20.07;83.44;101427.34;5067310;28;20045;-70
2023/06/29 01:59:03;;;;;;;29.52;23.27;;;;;;;20.07;83.58;101421.97;5066212;28;20076;-71
2023/06/29 02:01:30;;;;;;;32.88;23.88;;;;;;;20.07;83.45;101418.41;5062902;28;20538;-71
2023/06/29 02:03:59;;;;;;;36.40;25.67;;;;;;;20.06;83.33;101422.94;5064886;28;20077;-71
2023/06/29 02:06:26;;;;;;;32.85;23.67;;;;;;;20.05;83.94;101417.66;5061189;28;20037;-72
2023/06/29 02:08:54;;;;;;;35.17;24.25;;;;;;;20.04;83.60;101416.81;5062305;28;20964;-73
2023/06/29 02:11:21;;;;;;;37.08;24.35;;;;;;;20.04;83.77;101410.59;5065810;28;20051;-73
2023/06/29 02:13:48;;;;;;;34.53;24.17;;;;;;;20.04;83.70;101416.81;5074539;28;20041;-73
2023/06/29 02:16:15;;;;;;;36.33;24.75;;;;;;;20.02;83.87;101413.34;5058423;28;20049;-73
2023/06/29 02:18:43;;;;;;;32.67;23.98;;;;;;;20.01;83.37;101411.63;5058874;28;20467;-73
2023/06/29 02:21:10;;;;;;;32.17;23.45;;;;;;;20.01;84.20;101414.31;5065851;28;20037;-73
2023/06/29 02:23:38;;;;;;;36.53;25.02;;;;;;;20.00;84.14;101410.78;5067930;28;20041;-71
2023/06/29 02:26:05;;;;;;;38.20;26.30;;;;;;;20.01;83.92;101414.31;5064938;28;20776;-69
2023/06/29 02:28:35;;;;;;;33.67;24.48;;;;;;;20.00;84.39;101407.22;5066157;28;20123;-69
2023/06/29 02:31:02;;;;;;;36.60;25.30;;;;;;;19.98;84.34;101406.50;5065241;28;20041;-73
2023/06/29 02:33:30;;;;;;;34.63;25.90;;;;;;;19.96;84.26;101401.22;5063522;28;20085;-73
2023/06/29 02:35:57;;;;;;;36.95;26.27;;;;;;;19.97;84.40;101407.44;5065906;28;20048;-73
2023/06/29 02:38:25;;;;;;;34.80;25.65;;;;;;;19.97;84.46;101402.09;5062884;28;20044;-73
2023/06/29 02:40:52;;;;;;;34.45;24.83;;;;;;;19.97;84.71;101397.59;5065272;28;20041;-72
2023/06/29 02:43:19;;;;;;;31.73;23.80;;;;;;;19.96;84.84;101400.38;5066854;28;20047;-72
2023/06/29 02:45:46;;;;;;;35.63;25.50;;;;;;;19.93;84.72;101396.06;5066110;28;20051;-72
2023/06/29 02:48:14;;;;;;;32.50;24.38;;;;;;;19.93;84.72;101397.88;5079948;28;20061;-72
2023/06/29 02:50:41;;;;;;;33.35;24.83;;;;;;;19.92;84.70;101394.34;5065746;28;20033;-72
2023/06/29 02:53:11;;;;;;;33.75;24.13;;;;;;;19.91;84.88;101392.63;5067080;28;20626;-72
2023/06/29 02:55:38;;;;;;;36.15;25.17;;;;;;;19.88;84.80;101390.13;5060043;28;20537;-70
2023/06/29 02:58:05;;;;;;;33.88;24.95;;;;;;;19.89;85.33;101385.66;5061320;28;20049;-71
2023/06/29 03:00:32;;;;;;;33.17;24.73;;;;;;;19.88;84.99;101386.59;5059535;28;20103;-71
2023/06/29 03:03:00;;;;;;;38.97;25.80;;;;;;;19.87;85.23;101377.69;5065640;28;20099;-71
2023/06/29 03:05:28;;;;;;;35.45;26.02;;;;;;;19.88;85.02;101379.41;5063180;28;20103;-70
2023/06/29 03:07:55;;;;;;;33.65;25.23;;;;;;;19.88;85.19;101379.41;5061172;28;20037;-70
2023/06/29 03:10:22;;;;;;;34.00;24.83;;;;;;;19.85;85.63;101383.16;5065377;28;20049;-71
2023/06/29 03:12:49;;;;;;;34.10;24.58;;;;;;;19.85;85.51;101382.25;5066152;28;20048;-71
2023/06/29 03:15:16;;;;;;;34.38;24.50;;;;;;;19.84;85.30;101377.88;5064232;28;20041;-72
2023/06/29 03:17:43;;;;;;;34.17;24.55;;;;;;;19.86;85.40;101376.84;5065759;28;20133;-72
2023/06/29 03:20:13;;;;;;;33.20;24.00;;;;;;;19.86;85.57;101376.84;5064165;28;20049;-72
2023/06/29 03:22:41;;;;;;;34.63;24.77;;;;;;;19.87;85.66;101380.38;5059285;28;20469;-72
2023/06/29 03:25:10;;;;;;;39.03;24.95;;;;;;;19.87;85.57;101375.03;5066411;28;20049;-72
2023/06/29 03:27:37;;;;;;;34.20;25.40;;;;;;;19.88;85.57;101381.25;5064425;28;20049;-72
2023/06/29 03:30:05;;;;;;;33.58;24.77;;;;;;;19.90;85.24;101376.63;5064202;28;20056;-73
2023/06/29 03:32:32;;;;;;;37.15;25.65;;;;;;;19.90;85.58;101382.88;5066143;28;20060;-74
2023/06/29 03:34:59;;;;;;;34.00;25.83;;;;;;;19.91;85.37;101371.22;5066226;28;20103;-73
2023/06/29 03:37:26;;;;;;;35.95;25.52;;;;;;;19.94;85.38;101375.50;5064319;28;20041;-73
2023/06/29 03:39:53;;;;;;;35.58;25.27;;;;;;;19.95;85.63;101380.75;5058235;28;20045;-73
2023/06/29 03:42:20;;;;;;;32.97;24.33;;;;;;;19.96;85.35;101363.75;5065391;28;20052;-73
2023/06/29 03:44:47;;;;;;;38.17;25.23;;;;;;;19.97;86.02;101364.63;5064160;28;20041;-72
2023/06/29 03:47:15;;;;;;;37.63;25.42;;;;;;;19.98;85.28;101366.34;5058297;28;20048;-72
2023/06/29 03:49:42;;;;;;;36.33;25.02;;;;;;;19.98;85.71;101364.53;5064708;28;20131;-72
2023/06/29 03:52:09;;;;;;;35.17;25.45;;;;;;;19.99;85.19;101368.91;5064953;28;20044;-72
2023/06/29 03:54:36;;;;;;;33.28;25.00;;;;;;;19.98;85.51;101361.84;5065285;28;20045;-71
2023/06/29 03:57:03;;;;;;;34.50;25.45;;;;;;;20.00;85.40;101359.94;5063445;28;20040;-74
2023/06/29 03:59:30;;;;;;;34.75;25.27;;;;;;;20.03;85.36;101353.53;5054334;28;20108;-73
2023/06/29 04:01:57;;;;;;;37.10;26.27;;;;;;;20.03;85.46;101348.19;5056146;28;20041;-72
2023/06/29 04:04:24;;;;;;;38.10;27.40;;;;;;;20.04;85.30;101352.56;5057306;28;20115;-72
2023/06/29 04:06:51;;;;;;;36.42;25.83;;;;;;;20.06;85.18;101357.81;5058179;28;20424;-72
2023/06/29 04:09:18;;;;;;;34.83;25.42;;;;;;;20.06;85.35;101360.50;5058848;28;20383;-72
2023/06/29 04:11:45;;;;;;;37.17;26.70;;;;;;;20.06;85.34;101360.50;5061683;28;20075;-71
2023/06/29 04:14:12;;;;;;;36.92;26.05;;;;;;;20.07;85.49;101348.84;5061622;28;20049;-72
2023/06/29 04:16:39;;;;;;;37.30;26.30;;;;;;;20.06;85.44;101345.31;5056054;28;20143;-71
2023/06/29 04:19:07;;;;;;;36.58;27.05;;;;;;;20.07;85.52;101348.84;5065450;28;20129;-72
2023/06/29 04:21:35;;;;;;;42.63;28.35;;;;;;;20.06;85.46;101339.97;5064552;28;20099;-73
2023/06/29 04:24:02;;;;;;;39.10;28.50;;;;;;;20.06;85.48;101339.97;5065748;28;20502;-71
2023/06/29 04:26:31;;;;;;;38.00;27.67;;;;;;;20.07;85.35;101344.38;5061379;28;20081;-71
2023/06/29 04:29:03;;;;;;;38.03;27.10;;;;;;;20.09;85.40;101344.25;5061695;28;20048;-72
2023/06/29 04:31:30;;;;;;;38.83;27.02;;;;;;;20.11;85.49;101345.88;5057439;28;20563;-72
2023/06/29 04:34:02;;;;;;;42.92;27.83;;;;;;;20.12;85.34;101344.94;5059962;28;20072;-73
2023/06/29 04:36:30;;;;;;;37.25;25.83;;;;;;;20.14;85.41;101344.84;5059508;28;20484;-72
2023/06/29 04:38:57;;;;;;;41.08;28.08;;;;;;;20.16;85.11;101343.78;5063828;28;20069;-72
2023/06/29 04:41:33;;;;;;;39.40;28.20;;;;;;;20.17;85.08;101341.97;5057264;28;20041;-72
2023/06/29 04:44:00;;;;;;;40.97;27.63;;;;;;;20.17;84.96;101341.97;5057152;28;20061;-72
2023/06/29 04:46:30;;;;;;;42.78;28.98;;;;;;;20.19;85.11;101337.38;5054608;28;20041;-75
2023/06/29 04:49:06;;;;;;;39.63;26.33;;;;;;;20.22;84.96;101337.19;5059155;28;20107;-75
2023/06/29 04:51:35;;;;;;;41.33;27.55;;;;;;;20.25;84.86;101336.97;5056238;28;20045;-75
2023/06/29 04:54:05;;;;;;;40.25;27.52;;;;;;;20.27;85.16;101329.72;5048537;28;20498;-75
2023/06/29 04:56:35;;;;;;;40.45;27.98;;;;;;;20.29;84.60;101329.63;5050448;28;20041;-74
2023/06/29 04:59:02;;;;;;;40.35;26.83;;;;;;;20.33;85.04;101333.81;5063122;28;20037;-74
2023/06/29 05:01:29;;;;;;;31.25;21.95;;;;;;;20.37;84.95;101340.72;5068556;28;20052;-74
2023/06/29 05:03:56;;;;;;;46.83;26.77;;;;;;;20.45;84.76;101334.88;5065680;28;20152;-74
2023/06/29 05:06:26;;;;;;;38.05;23.30;;;;;;;20.52;84.41;101337.97;5064017;28;20485;-74
2023/06/29 05:08:53;;;;;;;40.83;26.33;;;;;;;20.57;84.00;101330.53;5072867;28;20611;-73
2023/06/29 05:11:20;;;;;;;44.20;27.92;;;;;;;20.58;83.78;101326.91;5059480;28;20819;-73
2023/06/29 05:13:47;;;;;;;40.85;26.88;;;;;;;20.60;83.94;101325.81;5073266;28;20063;-74
2023/06/29 05:16:14;;;;;;;33.50;24.42;;;;;;;20.63;83.92;101325.63;5078961;28;20048;-73
2023/06/29 05:18:41;;;;;;;36.15;25.83;;;;;;;20.64;84.01;101322.00;5068906;28;20123;-73
2023/06/29 05:21:10;;;;;;;42.72;26.73;;;;;;;20.66;83.74;101324.56;5057277;28;20122;-74
2023/06/29 05:23:37;;;;;;;34.88;24.77;;;;;;;20.71;83.58;101318.91;5052967;28;20488;-75
2023/06/29 05:26:04;;;;;;;41.42;26.80;;;;;;;20.72;83.46;101321.47;5054118;28;20099;-75
2023/06/29 05:28:32;;;;;;;38.58;26.02;;;;;;;20.74;83.27;101318.75;5054855;28;20045;-75
2023/06/29 05:30:59;;;;;;;36.38;24.02;;;;;;;20.77;83.46;101321.19;5059611;28;20483;-74
2023/06/29 05:33:27;;;;;;;36.45;26.42;;;;;;;20.86;83.43;101322.44;5049285;28;20037;-75
2023/06/29 05:35:54;;;;;;;46.00;25.70;;;;;;;20.92;83.18;101325.56;5052302;28;20538;-75
2023/06/29 05:38:21;;;;;;;39.50;26.73;;;;;;;21.02;82.94;101323.09;5053319;28;20041;-75
2023/06/29 05:40:48;;;;;;;43.30;26.23;;;;;;;21.09;82.76;101318.19;5050180;28;20527;-75
2023/06/29 05:43:15;;;;;;;39.75;27.17;;;;;;;21.14;82.79;101325.94;5057400;28;20060;-74
2023/06/29 05:45:43;;;;;;;41.45;26.98;;;;;;;21.19;82.72;101315.78;5057344;28;20060;-75
2023/06/29 05:48:10;;;;;;;40.05;26.83;;;;;;;21.23;82.27;101320.81;5064597;28;20049;-75
2023/06/29 05:50:37;;;;;;;39.42;27.10;;;;;;;21.25;82.16;101310.84;5053814;28;20138;-74
2023/06/29 05:53:04;;;;;;;49.05;27.35;;;;;;;21.28;82.52;101314.25;5061082;28;20099;-74
2023/06/29 05:55:31;;;;;;;37.63;25.27;;;;;;;21.29;82.11;101314.19;5055285;28;20073;-74
2023/06/29 05:57:58;;;;;;;39.15;26.13;;;;;;;21.33;81.92;101317.50;5056860;28;20051;-74
2023/06/29 06:00:26;;;;;;;39.05;25.35;;;;;;;21.35;81.79;101313.75;5070065;28;20047;-74
2023/06/29 06:02:53;;;;;;;44.08;26.48;;;;;;;21.38;81.46;101318.03;5082998;28;20045;-74
2023/06/29 06:05:20;;;;;;;39.00;25.23;;;;;;;21.42;81.33;101312.34;5075697;28;20047;-74
2023/06/29 06:07:47;;;;;;;37.28;25.15;;;;;;;21.45;81.19;101314.00;5068356;28;20053;-73
2023/06/29 06:10:14;;;;;;;41.47;25.20;;;;;;;21.51;80.68;101313.56;5059728;28;20092;-74
2023/06/29 06:12:41;;;;;;;37.85;24.92;;;;;;;21.57;81.05;101313.13;5058259;28;20623;-75
2023/06/29 06:15:11;;;;;;;39.28;25.00;;;;;;;21.67;81.01;101323.25;5069683;28;20082;-74
2023/06/29 06:17:38;;;;;;;37.53;25.92;;;;;;;21.70;80.65;101314.97;5062757;28;20049;-76
2023/06/29 06:20:06;;;;;;;37.75;25.55;;;;;;;21.75;80.25;101314.66;5068426;28;20041;-76
2023/06/29 06:22:33;;;;;;;32.83;23.63;;;;;;;21.78;79.73;101306.41;5075373;28;20140;-76
2023/06/29 06:25:00;;;;;;;35.90;23.42;;;;;;;21.85;79.68;101313.91;5079808;28;20037;-76
2023/06/29 06:27:27;;;;;;;34.65;24.30;;;;;;;21.91;79.53;101307.25;5072362;28;20123;-76
2023/06/29 06:29:55;;;;;;;34.53;23.83;;;;;;;21.95;79.45;101306.06;5082804;28;20070;-77
2023/06/29 06:32:24;;;;;;;35.83;22.20;;;;;;;22.01;78.50;101310.13;5068516;28;20041;-77
2023/06/29 06:34:52;;;;;;;33.90;22.50;;;;;;;22.04;78.08;101315.28;5086880;28;20048;-77
2023/06/29 06:37:20;;;;;;;34.47;21.67;;;;;;;22.09;77.95;101313.13;5072272;28;20476;-77
2023/06/29 06:39:47;;;;;;;36.78;22.08;;;;;;;22.16;76.82;101305.47;5077428;28;20049;-75
2023/06/29 06:42:14;;;;;;;36.30;23.05;;;;;;;22.22;77.33;101312.22;5078847;28;20558;-75
2023/06/29 06:44:51;;;;;;;35.35;21.65;;;;;;;22.27;76.67;101318.16;5068258;28;20045;-76
2023/06/29 06:47:19;;;;;;;33.22;21.77;;;;;;;22.28;76.05;101309.97;5071006;28;20044;-76
2023/06/29 06:49:47;;;;;;;33.20;21.27;;;;;;;22.31;75.73;101314.25;5072512;28;20080;-79
2023/06/29 06:52:15;;;;;;;29.95;20.98;;;;;;;22.36;75.43;101308.53;5073296;28;20191;-79
2023/06/29 06:54:42;;;;;;;33.88;21.33;;;;;;;22.41;75.17;101312.63;5084284;28;20057;-78
2023/06/29 06:57:10;;;;;;;34.58;20.98;;;;;;;22.46;74.90;101310.50;5075656;28;20041;-77
2023/06/29 06:59:37;;;;;;;31.92;20.48;;;;;;;22.50;74.95;101311.13;5067984;28;20073;-79
2023/06/29 07:02:05;;;;;;;29.20;19.95;;;;;;;22.53;74.47;101313.59;5078792;28;20045;-77
2023/06/29 07:04:33;;;;;;;29.52;19.65;;;;;;;22.54;74.73;101306.38;5083362;28;20047;-78
2023/06/29 07:07:00;;;;;;;28.42;19.20;;;;;;;22.51;73.42;101310.16;5072002;28;20041;-76
2023/06/29 07:09:27;;;;;;;31.38;19.48;;;;;;;22.47;73.18;101309.53;5082834;28;20043;-77
2023/06/29 07:11:54;;;;;;;30.17;18.98;;;;;;;22.50;73.57;101311.13;5076636;28;20102;-76
2023/06/29 07:14:21;;;;;;;30.80;18.70;;;;;;;22.53;72.83;101300.16;5082211;28;20098;-77
2023/06/29 07:16:48;;;;;;;49.78;19.73;;;;;;;22.54;73.11;101304.53;5060495;28;20141;-78
2023/06/29 07:19:16;;;;;;;38.92;18.40;;;;;;;22.59;73.36;101304.19;5057050;28;20041;-76
2023/06/29 07:21:46;;;;;;;34.10;19.08;;;;;;;22.62;72.77;101301.28;5080119;28;20041;-78
2023/06/29 07:24:33;;;;;;;28.20;17.75;;;;;;;22.62;71.99;101307.53;5079396;28;20119;-76
2023/06/29 07:27:00;;;;;;;27.65;17.73;;;;;;;22.62;72.32;101303.97;5070128;28;20037;-76
2023/06/29 07:29:30;;;;;;;31.88;18.67;;;;;;;22.62;72.28;101301.28;5083208;28;20041;-77
2023/06/29 07:31:57;;;;;;;31.58;18.27;;;;;;;22.64;72.33;101297.50;5076729;28;20048;-78
2023/06/29 07:34:24;;;;;;;31.85;17.65;;;;;;;22.70;72.41;101303.41;5084040;28;20051;-76
2023/06/29 07:36:51;;;;;;;28.65;17.17;;;;;;;22.73;71.76;101304.03;5071166;28;20163;-78
2023/06/29 07:39:18;;;;;;;30.70;16.95;;;;;;;22.75;71.34;101302.09;5070134;28;20052;-75
2023/06/29 07:41:45;;;;;;;30.88;17.05;;;;;;;22.79;70.80;101303.56;5080482;28;20119;-76
2023/06/29 07:44:14;;;;;;;26.45;16.20;;;;;;;22.80;70.03;101305.28;5077902;28;20087;-78
2023/06/29 07:46:41;;;;;;;29.58;17.50;;;;;;;22.84;70.38;101297.84;5072559;28;20053;-76
2023/06/29 07:49:08;;;;;;;29.88;16.85;;;;;;;22.90;70.92;101301.91;5082610;28;20060;-77
2023/06/29 07:51:37;;;;;;;26.17;15.98;;;;;;;22.93;70.25;101291.81;5074267;28;20437;-76
2023/06/29 07:54:06;;;;;;;28.30;16.52;;;;;;;22.95;70.01;101297.88;5085109;28;20037;-75
2023/06/29 07:56:33;;;;;;;37.55;16.75;;;;;;;22.99;69.52;101292.28;5073509;28;20136;-78
2023/06/29 07:59:03;;;;;;;26.27;15.95;;;;;;;23.07;69.16;101289.88;5065063;28;20265;-76
2023/06/29 08:01:34;;;;;;;27.27;15.93;;;;;;;23.13;67.90;101289.41;5061150;28;20953;-76
2023/06/29 08:04:01;;;;;;;34.10;16.92;;;;;;;23.20;67.94;101284.44;5059976;28;20047;-78
2023/06/29 08:06:32;;;;;;;35.13;17.05;;;;;;;23.28;68.25;101290.09;5065058;28;20080;-80
2023/06/29 08:09:02;;;;;;;28.08;16.92;;;;;;;23.37;68.08;101286.69;5060917;28;20148;-79
2023/06/29 08:11:29;;;;;;;26.13;16.55;;;;;;;23.54;68.15;101282.69;5058479;28;20583;-79
2023/06/29 08:13:56;;;;;;;24.25;16.20;;;;;;;23.71;66.97;101286.72;5066256;28;20553;-77
2023/06/29 08:16:23;;;;;;;25.52;16.63;;;;;;;23.96;65.48;101283.97;5060874;28;20099;-78
2023/06/29 08:18:50;;;;;;;24.33;15.88;;;;;;;24.21;64.58;101280.13;5057666;28;20053;-79
2023/06/29 08:21:18;;;;;;;25.05;15.40;;;;;;;24.43;64.18;101278.34;5059658;28;20060;-78
2023/06/29 08:23:46;;;;;;;25.63;16.05;;;;;;;24.64;62.69;101278.41;5062161;28;20438;-77
2023/06/29 08:26:15;;;;;;;24.75;15.65;;;;;;;24.86;61.54;101279.34;5075016;28;20041;-77
2023/06/29 08:28:42;;;;;;;41.03;16.52;;;;;;;25.00;60.59;101280.88;5071388;28;20115;-78
2023/06/29 08:31:09;;;;;;;29.48;16.98;;;;;;;25.14;61.04;101277.00;5071358;28;20048;-78
2023/06/29 08:33:37;;;;;;;25.67;15.48;;;;;;;25.31;59.83;101273.69;5079568;28;20662;-79
2023/06/29 08:36:04;;;;;;;25.73;15.52;;;;;;;25.42;59.25;101276.34;5076978;28;20048;-78
2023/06/29 08:38:31;;;;;;;25.13;15.18;;;;;;;25.55;56.88;101278.00;5072617;28;20041;-79
2023/06/29 08:40:59;;;;;;;21.92;13.75;;;;;;;25.62;55.22;101278.31;5083482;28;20115;-76
2023/06/29 08:43:26;;;;;;;24.08;14.15;;;;;;;25.72;54.11;101273.81;5074729;28;20076;-77
2023/06/29 08:45:53;;;;;;;28.85;15.00;;;;;;;25.79;55.36;101269.56;5064167;28;20036;-78
2023/06/29 08:48:22;;;;;;;23.02;13.30;;;;;;;25.91;53.21;101264.06;5085708;28;20056;-78
2023/06/29 08:51:00;;;;;;;19.10;12.95;;;;;;;25.99;53.60;101275.03;5069381;28;20052;-78
2023/06/29 08:53:28;;;;;;;19.23;13.05;;;;;;;26.04;54.06;101272.78;5049854;28;20041;-75
2023/06/29 08:55:57;;;;;;;19.73;13.35;;;;;;;26.14;53.48;101270.13;5070649;28;20464;-77
2023/06/29 08:58:25;;;;;;;19.55;13.00;;;;;;;26.35;52.38;101275.47;5070575;28;20049;-78
2023/06/29 09:00:53;;;;;;;40.55;15.05;;;;;;;26.52;50.91;101265.78;5054392;28;20045;-77
2023/06/29 09:03:25;;;;;;;37.10;14.35;;;;;;;26.66;50.73;101259.97;5082214;28;20333;-77
2023/06/29 09:05:54;;;;;;;23.98;13.27;;;;;;;26.79;50.07;101264.28;5074015;28;20053;-77
2023/06/29 09:08:23;;;;;;;27.80;13.05;;;;;;;26.86;49.50;101272.69;5073503;28;20041;-76
2023/06/29 09:10:50;;;;;;;21.13;14.10;;;;;;;26.85;49.73;101265.56;5082796;28;20044;-76
2023/06/29 09:13:18;;;;;;;21.08;12.95;;;;;;;26.90;49.30;101257.84;5082247;28;20041;-76
2023/06/29 09:15:49;;;;;;;20.25;13.35;;;;;;;26.95;50.00;101258.28;5065456;28;20060;-77
2023/06/29 09:18:22;;;;;;;21.10;13.20;;;;;;;27.02;48.96;101255.84;5066505;28;20049;-75
2023/06/29 09:20:55;;;;;;;25.40;13.50;;;;;;;27.07;49.83;101254.41;5045700;28;20525;-74
2023/06/29 09:23:25;;;;;;;19.40;12.85;;;;;;;27.04;49.33;101252.00;5069813;28;20060;-76
2023/06/29 09:25:55;;;;;;;19.63;12.95;;;;;;;27.00;49.64;101239.75;5074556;28;20198;-74
2023/06/29 09:28:24;;;;;;;23.17;13.55;;;;;;;27.02;48.96;101243.19;5081596;28;20589;-75
2023/06/29 09:30:51;;;;;;;21.38;12.68;;;;;;;26.92;49.28;101243.19;5072828;28;20049;-75
2023/06/29 09:33:19;;;;;;;27.02;13.90;;;;;;;26.83;49.89;101246.75;5051634;28;20045;-76
2023/06/29 09:35:51;;;;;;;30.80;12.98;;;;;;;26.85;50.30;101261.00;5048122;28;20453;-75
2023/06/29 09:38:20;;;;;;;23.50;13.45;;;;;;;26.89;50.72;101253.44;5063109;28;20128;-75
2023/06/29 09:40:53;;;;;;;22.60;13.07;;;;;;;26.93;50.12;101254.88;5068336;28;20052;-76
2023/06/29 09:43:25;;;;;;;21.63;13.32;;;;;;;26.95;49.41;101255.59;5068752;28;20445;-76
2023/06/29 09:46:06;;;;;;;22.30;13.67;;;;;;;27.00;49.07;101252.44;5081814;28;20560;-77
2023/06/29 09:48:43;;;;;;;20.80;12.95;;;;;;;27.14;49.49;101249.28;5069173;28;20066;-75
2023/06/29 09:51:23;;;;;;;24.13;13.50;;;;;;;27.44;49.47;101250.09;5082079;28;20045;-76
2023/06/29 09:53:51;;;;;;;19.77;13.75;;;;;;;27.62;48.32;101252.03;5070658;28;20048;-75
2023/06/29 09:56:18;;;;;;;21.95;13.55;;;;;;;27.75;47.46;101249.81;5077633;28;20033;-76
2023/06/29 09:58:46;;;;;;;19.10;12.15;;;;;;;27.85;46.86;101249.78;5086024;28;20040;-76
2023/06/29 10:01:15;;;;;;;20.98;13.40;;;;;;;27.80;46.64;101249.38;5066902;28;20756;-76
2023/06/29 10:03:44;;;;;;;20.40;12.73;;;;;;;27.67;47.13;101255.13;5056616;28;20041;-75
2023/06/29 10:06:19;;;;;;;32.08;13.73;;;;;;;27.59;47.02;101250.47;5079492;28;20051;-75
2023/06/29 10:08:55;;;;;;;17.55;11.27;;;;;;;27.53;45.32;101251.06;5071383;28;20141;-75
2023/06/29 10:11:31;;;;;;;15.63;10.95;;;;;;;27.50;45.50;101246.81;5054665;28;20063;-75
2023/06/29 10:14:05;;;;;;;15.20;10.50;;;;;;;27.61;46.36;101253.88;5069632;28;20820;-77
2023/06/29 10:16:40;;;;;;;23.55;11.88;;;;;;;27.78;46.71;101248.69;5077573;28;20099;-76
2023/06/29 10:19:21;;;;;;;16.70;10.77;;;;;;;27.81;44.05;101246.53;5082289;28;21009;-78
2023/06/29 10:22:14;;;;;;;18.08;11.60;;;;;;;27.71;44.78;101243.03;5059731;28;20091;-76
2023/06/29 10:24:53;;;;;;;27.27;11.27;;;;;;;27.64;44.56;101242.75;5066228;28;20545;-79
2023/06/29 10:27:24;;;;;;;14.45;10.15;;;;;;;27.56;44.80;101240.78;5055624;28;20124;-77
2023/06/29 10:29:51;;;;;;;16.20;10.40;;;;;;;27.50;45.00;101235.09;5080771;28;20588;-76
2023/06/29 10:32:35;;;;;;;24.08;11.98;;;;;;;27.43;45.43;101249.25;5071166;28;20541;-76
2023/06/29 10:35:13;;;;;;;25.15;11.68;;;;;;;27.35;45.09;101245.53;5074537;28;20060;-77
2023/06/29 10:37:45;;;;;;;21.02;11.57;;;;;;;27.34;45.44;101247.38;5068862;28;20550;-77
2023/06/29 10:40:18;;;;;;;18.40;11.27;;;;;;;27.51;44.96;101245.81;5068149;28;20041;-76
2023/06/29 10:42:45;;;;;;;15.93;10.50;;;;;;;27.69;45.43;101245.84;5079864;28;20037;-75
2023/06/29 10:45:18;;;;;;;15.63;9.98;;;;;;;27.95;43.33;101244.31;5065800;28;20060;-75
2023/06/29 10:48:00;;;;;;;16.27;11.57;;;;;;;27.93;43.63;101235.50;5081330;28;20076;-75
2023/06/29 10:50:34;;;;;;;16.65;10.73;;;;;;;27.85;43.79;101239.78;5066644;28;20041;-75
2023/06/29 10:53:05;;;;;;;17.10;10.75;;;;;;;27.78;43.97;101238.69;5084773;28;20103;-76
2023/06/29 10:55:42;;;;;;;15.90;9.85;;;;;;;27.68;42.90;101236.03;5066954;28;20040;-76
2023/06/29 10:58:28;;;;;;;15.93;10.10;;;;;;;27.43;43.86;101232.09;5067027;28;20053;-76
2023/06/29 11:00:56;;;;;;;15.30;9.05;;;;;;;27.25;43.69;101237.44;5076315;28;20041;-77
2023/06/29 11:03:24;;;;;;;18.52;10.52;;;;;;;27.21;44.66;101236.91;5084239;28;20553;-76
2023/06/29 11:05:54;;;;;;;16.63;10.30;;;;;;;27.25;44.73;101229.34;5078977;28;20483;-75
2023/06/29 11:08:23;;;;;;;18.95;9.30;;;;;;;27.35;44.11;101237.41;5082112;28;20036;-77
2023/06/29 11:10:51;;;;;;;18.02;10.00;;;;;;;27.37;44.00;101230.84;5067089;28;20535;-75
2023/06/29 11:13:21;;;;;;;12.80;8.65;;;;;;;27.45;44.03;101230.13;5064993;28;20505;-75
2023/06/29 11:15:56;;;;;;;12.68;9.18;;;;;;;27.42;43.72;101225.84;5064596;28;20516;-75
2023/06/29 11:18:23;;;;;;;13.52;9.10;;;;;;;27.38;43.64;101231.72;5069377;28;20041;-74